Los Nietos, California
Current Conditions -  °F | °C
As of 1:53 PM on Friday 24 Oct 2014 (Local Time) from KFUL Reporting Station
Clear Clear  
Wind Chill: 87°   Ceiling: Unl
Heat Index: 87°   Visibility: 10mi
Dew Point: 47°   Wind: 7mph
Humidity: 25%   Direction: NA
Pressure: 29.92"   Gusts: NA
Location:  33.9685°N, 118.069°W
Report Text: KFUL 242053Z VRB06KT 10SM CLR 31/08 A2992 RMK AO2 SLP131 T03060083 58019
Loading
Personal Weather Stations






























Interactive Weather Map New forecast layout! Learn more

10-Day Weather Forecast

Advertisements
Track Severe Weather on mobile